sensor_id;sensor_type;location;lat;lon;timestamp;temperature;humidity
23156;DHT22;11746;50.876;4.246;2023-05-29T00:01:59;15.30;99.90
23156;DHT22;11746;50.876;4.246;2023-05-29T00:04:25;15.10;99.90
23156;DHT22;11746;50.876;4.246;2023-05-29T00:06:51;15.10;99.90
23156;DHT22;11746;50.876;4.246;2023-05-29T00:09:19;15.10;99.90
23156;DHT22;11746;50.876;4.246;2023-05-29T00:11:45;15.10;99.90
23156;DHT22;11746;50.876;4.246;2023-05-29T00:14:16;15.10;99.90
23156;DHT22;11746;50.876;4.246;2023-05-29T00:16:45;15.10;99.90
23156;DHT22;11746;50.876;4.246;2023-05-29T00:19:12;15.20;99.90
23156;DHT22;11746;50.876;4.246;2023-05-29T00:21:39;15.10;99.90
23156;DHT22;11746;50.876;4.246;2023-05-29T00:24:07;15.10;99.90
23156;DHT22;11746;50.876;4.246;2023-05-29T00:26:37;15.00;99.90
23156;DHT22;11746;50.876;4.246;2023-05-29T00:29:02;15.10;99.90
23156;DHT22;11746;50.876;4.246;2023-05-29T00:31:28;15.00;99.90
23156;DHT22;11746;50.876;4.246;2023-05-29T00:33:58;15.00;99.90
23156;DHT22;11746;50.876;4.246;2023-05-29T00:36:26;15.00;99.90
23156;DHT22;11746;50.876;4.246;2023-05-29T00:38:54;15.10;99.90
23156;DHT22;11746;50.876;4.246;2023-05-29T00:41:19;15.00;99.90
23156;DHT22;11746;50.876;4.246;2023-05-29T00:43:47;14.80;99.90
23156;DHT22;11746;50.876;4.246;2023-05-29T00:46:14;14.90;99.90
23156;DHT22;11746;50.876;4.246;2023-05-29T00:48:46;14.70;99.90
23156;DHT22;11746;50.876;4.246;2023-05-29T00:51:13;14.60;99.90
23156;DHT22;11746;50.876;4.246;2023-05-29T00:53:42;14.60;99.90
23156;DHT22;11746;50.876;4.246;2023-05-29T00:56:09;14.60;99.90
23156;DHT22;11746;50.876;4.246;2023-05-29T00:58:38;14.60;99.90
23156;DHT22;11746;50.876;4.246;2023-05-29T01:01:03;14.50;99.90
23156;DHT22;11746;50.876;4.246;2023-05-29T01:03:31;14.40;99.90
23156;DHT22;11746;50.876;4.246;2023-05-29T01:05:57;14.40;99.90
23156;DHT22;11746;50.876;4.246;2023-05-29T01:08:25;14.40;99.90
23156;DHT22;11746;50.876;4.246;2023-05-29T01:10:54;14.30;99.90
23156;DHT22;11746;50.876;4.246;2023-05-29T01:13:29;14.40;99.90
23156;DHT22;11746;50.876;4.246;2023-05-29T01:16:12;14.20;99.90
23156;DHT22;11746;50.876;4.246;2023-05-29T01:21:51;14.00;99.90
23156;DHT22;11746;50.876;4.246;2023-05-29T01:27:15;14.00;99.90
23156;DHT22;11746;50.876;4.246;2023-05-29T01:29:43;13.90;99.90
23156;DHT22;11746;50.876;4.246;2023-05-29T01:32:10;13.90;99.90
23156;DHT22;11746;50.876;4.246;2023-05-29T01:34:36;13.80;99.90
23156;DHT22;11746;50.876;4.246;2023-05-29T01:37:01;13.80;99.90
23156;DHT22;11746;50.876;4.246;2023-05-29T01:39:30;13.80;99.90
23156;DHT22;11746;50.876;4.246;2023-05-29T01:41:59;13.70;99.90
23156;DHT22;11746;50.876;4.246;2023-05-29T01:44:26;13.60;99.90
23156;DHT22;11746;50.876;4.246;2023-05-29T01:46:52;13.50;99.90
23156;DHT22;11746;50.876;4.246;2023-05-29T01:49:18;13.70;99.90
23156;DHT22;11746;50.876;4.246;2023-05-29T01:51:44;13.70;99.90
23156;DHT22;11746;50.876;4.246;2023-05-29T01:54:12;13.60;99.90
23156;DHT22;11746;50.876;4.246;2023-05-29T01:56:42;13.70;99.90
23156;DHT22;11746;50.876;4.246;2023-05-29T01:59:10;13.70;99.90
23156;DHT22;11746;50.876;4.246;2023-05-29T02:01:38;13.60;99.90
23156;DHT22;11746;50.876;4.246;2023-05-29T02:04:05;13.50;99.90
23156;DHT22;11746;50.876;4.246;2023-05-29T02:06:33;13.40;99.90
23156;DHT22;11746;50.876;4.246;2023-05-29T02:08:58;13.40;99.90
23156;DHT22;11746;50.876;4.246;2023-05-29T02:11:29;13.40;99.90
23156;DHT22;11746;50.876;4.246;2023-05-29T02:13:54;13.30;99.90
23156;DHT22;11746;50.876;4.246;2023-05-29T02:16:20;13.30;99.90
23156;DHT22;11746;50.876;4.246;2023-05-29T02:18:46;13.30;99.90
23156;DHT22;11746;50.876;4.246;2023-05-29T02:21:12;13.40;99.90
23156;DHT22;11746;50.876;4.246;2023-05-29T02:23:40;13.30;99.90
23156;DHT22;11746;50.876;4.246;2023-05-29T02:26:07;13.20;99.90
23156;DHT22;11746;50.876;4.246;2023-05-29T02:28:35;13.20;99.90
23156;DHT22;11746;50.876;4.246;2023-05-29T02:31:03;13.10;99.90
23156;DHT22;11746;50.876;4.246;2023-05-29T02:33:31;13.20;99.90
23156;DHT22;11746;50.876;4.246;2023-05-29T02:35:57;13.20;99.90
23156;DHT22;11746;50.876;4.246;2023-05-29T02:38:25;13.20;99.90
23156;DHT22;11746;50.876;4.246;2023-05-29T02:40:52;13.10;99.90
23156;DHT22;11746;50.876;4.246;2023-05-29T02:43:21;13.20;99.90
23156;DHT22;11746;50.876;4.246;2023-05-29T02:45:49;13.10;99.90
23156;DHT22;11746;50.876;4.246;2023-05-29T02:48:15;13.10;99.90
23156;DHT22;11746;50.876;4.246;2023-05-29T02:50:42;13.00;99.90
23156;DHT22;11746;50.876;4.246;2023-05-29T02:53:10;12.90;99.90
23156;DHT22;11746;50.876;4.246;2023-05-29T02:55:36;12.80;99.90
23156;DHT22;11746;50.876;4.246;2023-05-29T02:58:02;12.70;99.90
23156;DHT22;11746;50.876;4.246;2023-05-29T03:00:30;12.70;99.90
23156;DHT22;11746;50.876;4.246;2023-05-29T03:02:55;12.60;99.90
23156;DHT22;11746;50.876;4.246;2023-05-29T03:05:21;12.50;99.90
23156;DHT22;11746;50.876;4.246;2023-05-29T03:07:46;12.60;99.90
23156;DHT22;11746;50.876;4.246;2023-05-29T03:10:15;12.60;99.90
23156;DHT22;11746;50.876;4.246;2023-05-29T03:12:44;12.50;99.90
23156;DHT22;11746;50.876;4.246;2023-05-29T03:15:13;12.60;99.90
23156;DHT22;11746;50.876;4.246;2023-05-29T03:17:39;12.50;99.90
23156;DHT22;11746;50.876;4.246;2023-05-29T03:20:06;12.40;99.90
23156;DHT22;11746;50.876;4.246;2023-05-29T03:22:34;12.50;99.90
23156;DHT22;11746;50.876;4.246;2023-05-29T03:24:59;12.50;99.90
23156;DHT22;11746;50.876;4.246;2023-05-29T03:27:25;12.40;99.90
23156;DHT22;11746;50.876;4.246;2023-05-29T03:29:51;12.40;99.90
23156;DHT22;11746;50.876;4.246;2023-05-29T03:32:18;12.40;99.90
23156;DHT22;11746;50.876;4.246;2023-05-29T03:34:45;12.40;99.90
23156;DHT22;11746;50.876;4.246;2023-05-29T03:37:16;12.40;99.90
23156;DHT22;11746;50.876;4.246;2023-05-29T03:39:44;12.30;99.90
23156;DHT22;11746;50.876;4.246;2023-05-29T03:42:09;12.40;99.90
23156;DHT22;11746;50.876;4.246;2023-05-29T03:44:35;12.30;99.90
23156;DHT22;11746;50.876;4.246;2023-05-29T03:47:01;12.30;99.90
23156;DHT22;11746;50.876;4.246;2023-05-29T03:49:28;12.30;99.90
23156;DHT22;11746;50.876;4.246;2023-05-29T03:51:54;12.30;99.90
23156;DHT22;11746;50.876;4.246;2023-05-29T03:54:19;12.20;99.90
23156;DHT22;11746;50.876;4.246;2023-05-29T03:56:45;12.20;99.90
23156;DHT22;11746;50.876;4.246;2023-05-29T03:59:13;12.20;99.90
23156;DHT22;11746;50.876;4.246;2023-05-29T04:01:41;12.10;99.90
23156;DHT22;11746;50.876;4.246;2023-05-29T04:04:12;12.10;99.90
23156;DHT22;11746;50.876;4.246;2023-05-29T04:06:40;12.10;99.90
23156;DHT22;11746;50.876;4.246;2023-05-29T04:09:07;12.00;99.90
23156;DHT22;11746;50.876;4.246;2023-05-29T04:11:33;12.00;99.90
23156;DHT22;11746;50.876;4.246;2023-05-29T04:14:00;12.00;99.90
23156;DHT22;11746;50.876;4.246;2023-05-29T04:16:27;12.00;99.90
23156;DHT22;11746;50.876;4.246;2023-05-29T04:18:56;12.10;99.90
23156;DHT22;11746;50.876;4.246;2023-05-29T04:21:22;12.10;99.90
23156;DHT22;11746;50.876;4.246;2023-05-29T04:23:47;12.20;99.90
23156;DHT22;11746;50.876;4.246;2023-05-29T04:26:13;12.20;99.90
23156;DHT22;11746;50.876;4.246;2023-05-29T04:28:41;12.20;99.90
23156;DHT22;11746;50.876;4.246;2023-05-29T04:31:07;12.20;99.90
23156;DHT22;11746;50.876;4.246;2023-05-29T04:33:33;12.10;99.90
23156;DHT22;11746;50.876;4.246;2023-05-29T04:36:02;12.10;99.90
23156;DHT22;11746;50.876;4.246;2023-05-29T04:38:29;12.20;99.90
23156;DHT22;11746;50.876;4.246;2023-05-29T04:40:56;12.10;99.90
23156;DHT22;11746;50.876;4.246;2023-05-29T04:43:26;12.10;99.90
23156;DHT22;11746;50.876;4.246;2023-05-29T04:45:56;12.10;99.90
23156;DHT22;11746;50.876;4.246;2023-05-29T04:48:23;12.20;99.90
23156;DHT22;11746;50.876;4.246;2023-05-29T04:50:48;12.20;99.90
23156;DHT22;11746;50.876;4.246;2023-05-29T04:53:14;12.20;99.90
23156;DHT22;11746;50.876;4.246;2023-05-29T04:55:40;12.20;99.90
23156;DHT22;11746;50.876;4.246;2023-05-29T04:58:05;12.30;99.90
23156;DHT22;11746;50.876;4.246;2023-05-29T05:00:31;12.30;99.90
23156;DHT22;11746;50.876;4.246;2023-05-29T05:02:57;12.20;99.90
23156;DHT22;11746;50.876;4.246;2023-05-29T05:05:23;12.20;99.90
23156;DHT22;11746;50.876;4.246;2023-05-29T05:07:49;12.30;99.90
23156;DHT22;11746;50.876;4.246;2023-05-29T05:10:16;12.40;99.90
23156;DHT22;11746;50.876;4.246;2023-05-29T05:12:42;12.40;99.90
23156;DHT22;11746;50.876;4.246;2023-05-29T05:15:08;12.40;99.90
23156;DHT22;11746;50.876;4.246;2023-05-29T05:17:34;12.30;99.90
23156;DHT22;11746;50.876;4.246;2023-05-29T05:20:00;12.20;99.90
23156;DHT22;11746;50.876;4.246;2023-05-29T05:22:28;12.30;99.90
23156;DHT22;11746;50.876;4.246;2023-05-29T05:25:00;12.40;99.90
23156;DHT22;11746;50.876;4.246;2023-05-29T05:27:26;12.40;99.90
23156;DHT22;11746;50.876;4.246;2023-05-29T05:29:51;12.40;99.90
23156;DHT22;11746;50.876;4.246;2023-05-29T05:32:19;12.50;99.90
23156;DHT22;11746;50.876;4.246;2023-05-29T05:34:47;12.50;99.90
23156;DHT22;11746;50.876;4.246;2023-05-29T05:37:15;12.70;99.90
23156;DHT22;11746;50.876;4.246;2023-05-29T05:39:41;12.70;99.90
23156;DHT22;11746;50.876;4.246;2023-05-29T05:42:07;12.70;99.90
23156;DHT22;11746;50.876;4.246;2023-05-29T05:44:32;12.70;99.90
23156;DHT22;11746;50.876;4.246;2023-05-29T05:46:58;12.60;99.90
23156;DHT22;11746;50.876;4.246;2023-05-29T05:49:26;12.70;99.90
23156;DHT22;11746;50.876;4.246;2023-05-29T05:51:51;12.80;99.90
23156;DHT22;11746;50.876;4.246;2023-05-29T05:54:19;12.70;99.90
23156;DHT22;11746;50.876;4.246;2023-05-29T05:56:45;12.70;99.90
23156;DHT22;11746;50.876;4.246;2023-05-29T05:59:11;12.70;99.90
23156;DHT22;11746;50.876;4.246;2023-05-29T06:01:37;12.70;99.90
23156;DHT22;11746;50.876;4.246;2023-05-29T06:04:02;12.80;99.90
23156;DHT22;11746;50.876;4.246;2023-05-29T06:06:28;12.80;99.90
23156;DHT22;11746;50.876;4.246;2023-05-29T06:08:53;12.90;99.90
23156;DHT22;11746;50.876;4.246;2023-05-29T06:11:21;13.00;99.90
23156;DHT22;11746;50.876;4.246;2023-05-29T06:13:47;12.90;99.90
23156;DHT22;11746;50.876;4.246;2023-05-29T06:16:16;12.90;99.90
23156;DHT22;11746;50.876;4.246;2023-05-29T06:18:42;13.00;99.90
23156;DHT22;11746;50.876;4.246;2023-05-29T06:21:08;13.00;99.90
23156;DHT22;11746;50.876;4.246;2023-05-29T06:23:38;13.20;99.90
23156;DHT22;11746;50.876;4.246;2023-05-29T06:26:06;13.20;99.90
23156;DHT22;11746;50.876;4.246;2023-05-29T06:28:34;13.30;99.90
23156;DHT22;11746;50.876;4.246;2023-05-29T06:31:02;13.30;99.90
23156;DHT22;11746;50.876;4.246;2023-05-29T06:33:27;13.50;99.90
23156;DHT22;11746;50.876;4.246;2023-05-29T06:35:55;13.40;99.90
23156;DHT22;11746;50.876;4.246;2023-05-29T06:38:20;13.40;99.90
23156;DHT22;11746;50.876;4.246;2023-05-29T06:40:46;13.50;99.90
23156;DHT22;11746;50.876;4.246;2023-05-29T06:43:12;13.50;99.90
23156;DHT22;11746;50.876;4.246;2023-05-29T06:45:38;13.70;99.90
23156;DHT22;11746;50.876;4.246;2023-05-29T06:48:03;13.80;99.90
23156;DHT22;11746;50.876;4.246;2023-05-29T06:50:29;13.90;99.90
23156;DHT22;11746;50.876;4.246;2023-05-29T06:52:55;13.80;99.90
23156;DHT22;11746;50.876;4.246;2023-05-29T06:55:23;13.90;99.90
23156;DHT22;11746;50.876;4.246;2023-05-29T06:57:49;14.10;99.90
23156;DHT22;11746;50.876;4.246;2023-05-29T07:00:17;14.20;99.90
23156;DHT22;11746;50.876;4.246;2023-05-29T07:02:48;14.10;99.90
23156;DHT22;11746;50.876;4.246;2023-05-29T07:05:13;13.90;99.90
23156;DHT22;11746;50.876;4.246;2023-05-29T07:07:41;13.70;99.90
23156;DHT22;11746;50.876;4.246;2023-05-29T07:10:10;13.90;99.90
23156;DHT22;11746;50.876;4.246;2023-05-29T07:12:35;14.00;99.90
23156;DHT22;11746;50.876;4.246;2023-05-29T07:15:01;14.30;99.90
23156;DHT22;11746;50.876;4.246;2023-05-29T07:17:26;14.40;99.90
23156;DHT22;11746;50.876;4.246;2023-05-29T07:19:54;14.30;99.90
23156;DHT22;11746;50.876;4.246;2023-05-29T07:22:20;14.40;99.90
23156;DHT22;11746;50.876;4.246;2023-05-29T07:24:53;14.40;99.90
23156;DHT22;11746;50.876;4.246;2023-05-29T07:27:19;14.40;99.90
23156;DHT22;11746;50.876;4.246;2023-05-29T07:29:44;14.60;99.90
23156;DHT22;11746;50.876;4.246;2023-05-29T07:32:10;14.70;99.90
23156;DHT22;11746;50.876;4.246;2023-05-29T07:34:36;14.70;99.90
23156;DHT22;11746;50.876;4.246;2023-05-29T07:37:07;14.80;99.90
23156;DHT22;11746;50.876;4.246;2023-05-29T07:39:34;14.80;99.90
23156;DHT22;11746;50.876;4.246;2023-05-29T07:42:01;14.90;99.90
23156;DHT22;11746;50.876;4.246;2023-05-29T07:44:27;15.00;99.90
23156;DHT22;11746;50.876;4.246;2023-05-29T07:46:55;15.10;99.90
23156;DHT22;11746;50.876;4.246;2023-05-29T07:49:23;15.00;99.90
23156;DHT22;11746;50.876;4.246;2023-05-29T07:51:49;15.00;99.90
23156;DHT22;11746;50.876;4.246;2023-05-29T07:54:15;15.00;99.90
23156;DHT22;11746;50.876;4.246;2023-05-29T07:56:46;15.00;99.90
23156;DHT22;11746;50.876;4.246;2023-05-29T07:59:14;15.00;99.90
23156;DHT22;11746;50.876;4.246;2023-05-29T08:01:40;15.10;99.90
23156;DHT22;11746;50.876;4.246;2023-05-29T08:04:05;15.20;99.90
23156;DHT22;11746;50.876;4.246;2023-05-29T08:06:31;15.40;99.90
23156;DHT22;11746;50.876;4.246;2023-05-29T08:09:02;15.60;99.90
23156;DHT22;11746;50.876;4.246;2023-05-29T08:11:28;15.50;99.90
23156;DHT22;11746;50.876;4.246;2023-05-29T08:13:54;15.50;99.90
23156;DHT22;11746;50.876;4.246;2023-05-29T08:16:20;15.60;99.90
23156;DHT22;11746;50.876;4.246;2023-05-29T08:18:47;15.70;99.90
23156;DHT22;11746;50.876;4.246;2023-05-29T08:21:13;16.00;99.90
23156;DHT22;11746;50.876;4.246;2023-05-29T08:23:39;15.90;99.90
23156;DHT22;11746;50.876;4.246;2023-05-29T08:26:05;15.90;99.90
23156;DHT22;11746;50.876;4.246;2023-05-29T08:28:31;15.90;99.90
23156;DHT22;11746;50.876;4.246;2023-05-29T08:30:56;16.00;99.90
23156;DHT22;11746;50.876;4.246;2023-05-29T08:33:22;16.00;99.90
23156;DHT22;11746;50.876;4.246;2023-05-29T08:35:50;16.10;99.90
23156;DHT22;11746;50.876;4.246;2023-05-29T08:38:18;16.10;99.90
23156;DHT22;11746;50.876;4.246;2023-05-29T08:40:43;15.90;99.90
23156;DHT22;11746;50.876;4.246;2023-05-29T08:43:21;16.10;99.90
23156;DHT22;11746;50.876;4.246;2023-05-29T08:45:54;16.10;99.90
23156;DHT22;11746;50.876;4.246;2023-05-29T08:48:24;16.00;99.90
23156;DHT22;11746;50.876;4.246;2023-05-29T08:50:56;16.20;99.90
23156;DHT22;11746;50.876;4.246;2023-05-29T08:53:25;16.20;99.90
23156;DHT22;11746;50.876;4.246;2023-05-29T08:55:52;16.10;99.90
23156;DHT22;11746;50.876;4.246;2023-05-29T08:58:21;16.30;99.90
23156;DHT22;11746;50.876;4.246;2023-05-29T09:00:48;16.50;99.90
23156;DHT22;11746;50.876;4.246;2023-05-29T09:03:17;16.60;99.90
23156;DHT22;11746;50.876;4.246;2023-05-29T09:05:48;16.90;99.90
23156;DHT22;11746;50.876;4.246;2023-05-29T09:08:16;17.00;99.90
23156;DHT22;11746;50.876;4.246;2023-05-29T09:10:45;17.10;99.90
23156;DHT22;11746;50.876;4.246;2023-05-29T09:13:14;17.20;99.90
23156;DHT22;11746;50.876;4.246;2023-05-29T09:15:40;17.10;99.90
23156;DHT22;11746;50.876;4.246;2023-05-29T09:18:08;17.00;99.90
23156;DHT22;11746;50.876;4.246;2023-05-29T09:20:34;16.90;99.90
23156;DHT22;11746;50.876;4.246;2023-05-29T09:25:32;17.00;99.90
23156;DHT22;11746;50.876;4.246;2023-05-29T09:28:04;16.90;99.90
23156;DHT22;11746;50.876;4.246;2023-05-29T09:30:37;16.90;99.90
23156;DHT22;11746;50.876;4.246;2023-05-29T09:33:03;17.00;99.90
23156;DHT22;11746;50.876;4.246;2023-05-29T09:35:43;17.10;99.90
23156;DHT22;11746;50.876;4.246;2023-05-29T09:38:13;17.20;99.90
23156;DHT22;11746;50.876;4.246;2023-05-29T09:40:40;17.20;99.90
23156;DHT22;11746;50.876;4.246;2023-05-29T09:43:11;17.10;99.90
23156;DHT22;11746;50.876;4.246;2023-05-29T09:45:39;17.10;99.90
23156;DHT22;11746;50.876;4.246;2023-05-29T09:48:15;17.20;99.90
23156;DHT22;11746;50.876;4.246;2023-05-29T09:50:44;17.70;99.90
23156;DHT22;11746;50.876;4.246;2023-05-29T09:53:23;18.00;99.90
23156;DHT22;11746;50.876;4.246;2023-05-29T09:55:53;18.10;99.90
23156;DHT22;11746;50.876;4.246;2023-05-29T09:58:21;18.20;99.90
23156;DHT22;11746;50.876;4.246;2023-05-29T10:00:50;18.20;99.90
23156;DHT22;11746;50.876;4.246;2023-05-29T10:03:19;18.30;99.90
23156;DHT22;11746;50.876;4.246;2023-05-29T10:05:50;18.20;99.90
23156;DHT22;11746;50.876;4.246;2023-05-29T10:08:18;18.10;99.90
23156;DHT22;11746;50.876;4.246;2023-05-29T10:10:46;18.10;99.90
23156;DHT22;11746;50.876;4.246;2023-05-29T10:13:19;18.00;99.90
23156;DHT22;11746;50.876;4.246;2023-05-29T10:15:49;18.10;99.90
23156;DHT22;11746;50.876;4.246;2023-05-29T10:18:26;18.20;99.90
23156;DHT22;11746;50.876;4.246;2023-05-29T10:20:54;18.40;99.90
23156;DHT22;11746;50.876;4.246;2023-05-29T10:23:25;18.40;99.90
23156;DHT22;11746;50.876;4.246;2023-05-29T10:26:10;18.40;99.90
23156;DHT22;11746;50.876;4.246;2023-05-29T10:28:46;18.40;99.90
23156;DHT22;11746;50.876;4.246;2023-05-29T10:31:30;18.50;99.90
23156;DHT22;11746;50.876;4.246;2023-05-29T10:36:44;18.70;99.90
23156;DHT22;11746;50.876;4.246;2023-05-29T10:39:12;19.00;99.90
23156;DHT22;11746;50.876;4.246;2023-05-29T10:41:41;19.00;99.90
23156;DHT22;11746;50.876;4.246;2023-05-29T10:49:28;19.30;99.90
23156;DHT22;11746;50.876;4.246;2023-05-29T10:51:56;19.40;99.90
23156;DHT22;11746;50.876;4.246;2023-05-29T10:54:25;19.50;99.90
23156;DHT22;11746;50.876;4.246;2023-05-29T10:57:01;19.80;99.90
23156;DHT22;11746;50.876;4.246;2023-05-29T10:59:27;19.70;99.90
23156;DHT22;11746;50.876;4.246;2023-05-29T11:01:54;19.50;99.90
23156;DHT22;11746;50.876;4.246;2023-05-29T11:06:48;19.80;99.90
23156;DHT22;11746;50.876;4.246;2023-05-29T11:09:29;20.00;99.90
23156;DHT22;11746;50.876;4.246;2023-05-29T11:14:59;19.90;99.90
23156;DHT22;11746;50.876;4.246;2023-05-29T11:19:56;19.90;99.90
23156;DHT22;11746;50.876;4.246;2023-05-29T11:22:32;20.00;99.90
23156;DHT22;11746;50.876;4.246;2023-05-29T11:25:00;20.10;99.90
23156;DHT22;11746;50.876;4.246;2023-05-29T11:27:26;20.30;99.90
23156;DHT22;11746;50.876;4.246;2023-05-29T11:29:55;20.40;99.90
23156;DHT22;11746;50.876;4.246;2023-05-29T11:32:22;20.40;99.90
23156;DHT22;11746;50.876;4.246;2023-05-29T11:34:54;20.50;99.80
23156;DHT22;11746;50.876;4.246;2023-05-29T11:37:22;20.60;99.90
23156;DHT22;11746;50.876;4.246;2023-05-29T11:39:51;20.70;99.00
23156;DHT22;11746;50.876;4.246;2023-05-29T11:42:16;20.70;99.50
23156;DHT22;11746;50.876;4.246;2023-05-29T11:44:42;20.90;98.70
23156;DHT22;11746;50.876;4.246;2023-05-29T11:47:08;21.00;99.90
23156;DHT22;11746;50.876;4.246;2023-05-29T11:49:36;21.20;99.70
23156;DHT22;11746;50.876;4.246;2023-05-29T11:52:20;21.10;98.20
23156;DHT22;11746;50.876;4.246;2023-05-29T11:54:49;21.20;98.40
23156;DHT22;11746;50.876;4.246;2023-05-29T11:57:19;21.20;99.60
23156;DHT22;11746;50.876;4.246;2023-05-29T11:59:45;21.20;98.20
23156;DHT22;11746;50.876;4.246;2023-05-29T12:02:10;21.30;97.60
23156;DHT22;11746;50.876;4.246;2023-05-29T12:04:41;21.20;98.00
23156;DHT22;11746;50.876;4.246;2023-05-29T12:07:19;21.40;97.60
23156;DHT22;11746;50.876;4.246;2023-05-29T12:09:45;21.40;97.00
23156;DHT22;11746;50.876;4.246;2023-05-29T12:12:15;21.60;98.90
23156;DHT22;11746;50.876;4.246;2023-05-29T12:14:41;21.50;96.60
23156;DHT22;11746;50.876;4.246;2023-05-29T12:17:11;21.60;97.70
23156;DHT22;11746;50.876;4.246;2023-05-29T12:19:37;21.70;96.70
23156;DHT22;11746;50.876;4.246;2023-05-29T12:22:02;21.70;95.90
23156;DHT22;11746;50.876;4.246;2023-05-29T12:24:33;21.90;95.70
23156;DHT22;11746;50.876;4.246;2023-05-29T12:27:02;22.00;95.10
23156;DHT22;11746;50.876;4.246;2023-05-29T12:29:30;21.90;95.80
23156;DHT22;11746;50.876;4.246;2023-05-29T12:32:00;21.80;95.60
23156;DHT22;11746;50.876;4.246;2023-05-29T12:34:26;21.90;95.80
23156;DHT22;11746;50.876;4.246;2023-05-29T12:36:51;22.10;94.50
23156;DHT22;11746;50.876;4.246;2023-05-29T12:39:17;22.10;93.50
23156;DHT22;11746;50.876;4.246;2023-05-29T12:41:43;22.30;94.10
23156;DHT22;11746;50.876;4.246;2023-05-29T12:44:09;22.50;93.20
23156;DHT22;11746;50.876;4.246;2023-05-29T12:46:37;22.50;92.80
23156;DHT22;11746;50.876;4.246;2023-05-29T12:49:16;22.00;93.30
23156;DHT22;11746;50.876;4.246;2023-05-29T12:51:43;22.10;93.70
23156;DHT22;11746;50.876;4.246;2023-05-29T12:54:15;21.90;93.20
23156;DHT22;11746;50.876;4.246;2023-05-29T12:56:41;22.00;93.50
23156;DHT22;11746;50.876;4.246;2023-05-29T12:59:07;22.10;94.60
23156;DHT22;11746;50.876;4.246;2023-05-29T13:01:34;22.00;93.10
23156;DHT22;11746;50.876;4.246;2023-05-29T13:04:00;22.00;94.10
23156;DHT22;11746;50.876;4.246;2023-05-29T13:06:29;22.30;92.70
23156;DHT22;11746;50.876;4.246;2023-05-29T13:08:57;22.50;93.60
23156;DHT22;11746;50.876;4.246;2023-05-29T13:11:22;22.80;93.20
23156;DHT22;11746;50.876;4.246;2023-05-29T13:13:50;23.10;91.00
23156;DHT22;11746;50.876;4.246;2023-05-29T13:16:18;23.40;91.30
23156;DHT22;11746;50.876;4.246;2023-05-29T13:18:44;23.40;89.80
23156;DHT22;11746;50.876;4.246;2023-05-29T13:21:10;23.40;90.00
23156;DHT22;11746;50.876;4.246;2023-05-29T13:23:36;23.40;89.70
23156;DHT22;11746;50.876;4.246;2023-05-29T13:26:04;23.50;89.20
23156;DHT22;11746;50.876;4.246;2023-05-29T13:28:30;23.20;88.70
23156;DHT22;11746;50.876;4.246;2023-05-29T13:30:58;23.00;90.40
23156;DHT22;11746;50.876;4.246;2023-05-29T13:33:24;23.10;87.50
23156;DHT22;11746;50.876;4.246;2023-05-29T13:35:50;23.10;90.00
23156;DHT22;11746;50.876;4.246;2023-05-29T13:38:15;23.30;88.80
23156;DHT22;11746;50.876;4.246;2023-05-29T13:40:41;23.40;87.70
23156;DHT22;11746;50.876;4.246;2023-05-29T13:43:11;23.60;89.80
23156;DHT22;11746;50.876;4.246;2023-05-29T13:45:37;23.70;87.60
23156;DHT22;11746;50.876;4.246;2023-05-29T13:48:03;23.80;86.40
23156;DHT22;11746;50.876;4.246;2023-05-29T13:50:29;23.70;87.30
23156;DHT22;11746;50.876;4.246;2023-05-29T13:52:57;23.50;87.00
23156;DHT22;11746;50.876;4.246;2023-05-29T13:55:25;23.70;86.50
23156;DHT22;11746;50.876;4.246;2023-05-29T13:57:50;23.60;85.50
23156;DHT22;11746;50.876;4.246;2023-05-29T14:00:16;23.70;85.10
23156;DHT22;11746;50.876;4.246;2023-05-29T14:02:42;23.50;85.40
23156;DHT22;11746;50.876;4.246;2023-05-29T14:05:10;23.50;86.50
23156;DHT22;11746;50.876;4.246;2023-05-29T14:07:38;23.50;84.90
23156;DHT22;11746;50.876;4.246;2023-05-29T14:10:07;23.60;84.80
23156;DHT22;11746;50.876;4.246;2023-05-29T14:12:33;23.50;86.20
23156;DHT22;11746;50.876;4.246;2023-05-29T14:14:58;23.40;84.50
23156;DHT22;11746;50.876;4.246;2023-05-29T14:17:26;23.60;85.10
23156;DHT22;11746;50.876;4.246;2023-05-29T14:19:52;23.70;83.10
23156;DHT22;11746;50.876;4.246;2023-05-29T14:22:17;23.60;82.90
23156;DHT22;11746;50.876;4.246;2023-05-29T14:24:43;23.50;82.20
23156;DHT22;11746;50.876;4.246;2023-05-29T14:27:09;23.70;83.30
23156;DHT22;11746;50.876;4.246;2023-05-29T14:29:34;23.70;84.20
23156;DHT22;11746;50.876;4.246;2023-05-29T14:32:02;23.70;84.00
23156;DHT22;11746;50.876;4.246;2023-05-29T14:34:30;23.60;85.50
23156;DHT22;11746;50.876;4.246;2023-05-29T14:36:56;23.50;84.80
23156;DHT22;11746;50.876;4.246;2023-05-29T14:39:24;23.70;84.30
23156;DHT22;11746;50.876;4.246;2023-05-29T14:41:52;23.90;84.70
23156;DHT22;11746;50.876;4.246;2023-05-29T14:44:17;23.90;83.80
23156;DHT22;11746;50.876;4.246;2023-05-29T14:46:43;23.60;83.80
23156;DHT22;11746;50.876;4.246;2023-05-29T14:49:08;23.70;85.50
23156;DHT22;11746;50.876;4.246;2023-05-29T14:51:36;23.40;84.00
23156;DHT22;11746;50.876;4.246;2023-05-29T14:54:02;23.30;83.50
23156;DHT22;11746;50.876;4.246;2023-05-29T14:56:28;23.20;85.20
23156;DHT22;11746;50.876;4.246;2023-05-29T14:58:53;23.40;84.20
23156;DHT22;11746;50.876;4.246;2023-05-29T15:01:19;23.10;82.10
23156;DHT22;11746;50.876;4.246;2023-05-29T15:03:45;23.10;83.70
23156;DHT22;11746;50.876;4.246;2023-05-29T15:06:12;23.00;82.80
23156;DHT22;11746;50.876;4.246;2023-05-29T15:08:38;22.90;83.00
23156;DHT22;11746;50.876;4.246;2023-05-29T15:11:05;23.00;83.30
23156;DHT22;11746;50.876;4.246;2023-05-29T15:13:31;23.10;82.30
23156;DHT22;11746;50.876;4.246;2023-05-29T15:15:57;23.20;82.10
23156;DHT22;11746;50.876;4.246;2023-05-29T15:18:28;23.20;81.80
23156;DHT22;11746;50.876;4.246;2023-05-29T15:20:54;22.90;82.80
23156;DHT22;11746;50.876;4.246;2023-05-29T15:23:20;22.60;83.10
23156;DHT22;11746;50.876;4.246;2023-05-29T15:25:52;22.50;83.40
23156;DHT22;11746;50.876;4.246;2023-05-29T15:28:17;22.80;83.70
23156;DHT22;11746;50.876;4.246;2023-05-29T15:30:45;22.80;83.40
23156;DHT22;11746;50.876;4.246;2023-05-29T15:33:12;22.90;81.20
23156;DHT22;11746;50.876;4.246;2023-05-29T15:35:38;22.90;80.30
23156;DHT22;11746;50.876;4.246;2023-05-29T15:38:06;22.90;82.00
23156;DHT22;11746;50.876;4.246;2023-05-29T15:40:31;22.70;80.60
23156;DHT22;11746;50.876;4.246;2023-05-29T15:42:59;22.80;80.50
23156;DHT22;11746;50.876;4.246;2023-05-29T15:45:27;22.50;79.50
23156;DHT22;11746;50.876;4.246;2023-05-29T15:47:56;22.50;78.60
23156;DHT22;11746;50.876;4.246;2023-05-29T15:50:21;22.50;79.10
23156;DHT22;11746;50.876;4.246;2023-05-29T15:52:48;22.50;80.10
23156;DHT22;11746;50.876;4.246;2023-05-29T15:55:17;22.30;80.30
23156;DHT22;11746;50.876;4.246;2023-05-29T15:57:43;22.30;80.00